createdAt,value
2023-03-26T00:01:58.419Z,99.60
2023-03-26T00:04:26.445Z,99.60
2023-03-26T00:06:54.477Z,99.60
2023-03-26T00:09:23.878Z,99.60
2023-03-26T00:11:52.046Z,99.60
2023-03-26T00:14:19.984Z,99.60
2023-03-26T00:16:49.401Z,99.60
2023-03-26T00:19:17.523Z,99.60
2023-03-26T00:21:45.544Z,99.60
2023-03-26T00:24:16.182Z,99.60
2023-03-26T00:26:53.081Z,99.60
2023-03-26T00:29:22.930Z,99.60
2023-03-26T00:31:51.482Z,99.60
2023-03-26T00:34:19.521Z,99.60
2023-03-26T00:36:47.867Z,99.60
2023-03-26T00:39:17.784Z,99.60
2023-03-26T00:41:47.279Z,99.60
2023-03-26T00:44:15.444Z,99.60
2023-03-26T00:46:43.434Z,99.60
2023-03-26T00:49:14.657Z,99.60
2023-03-26T00:51:43.034Z,99.60
2023-03-26T00:54:12.016Z,99.60
2023-03-26T00:56:40.341Z,99.60
2023-03-26T00:59:10.248Z,99.60
2023-03-26T01:01:38.497Z,99.60
2023-03-26T01:04:27.219Z,99.60
2023-03-26T01:06:56.400Z,99.60
2023-03-26T01:09:32.911Z,99.60
2023-03-26T01:12:02.407Z,99.60
2023-03-26T01:14:32.144Z,99.60
2023-03-26T01:17:02.247Z,99.60
2023-03-26T01:19:38.159Z,99.60
2023-03-26T01:22:09.711Z,99.60
2023-03-26T01:24:39.312Z,99.60
2023-03-26T01:27:26.012Z,99.60
2023-03-26T01:29:56.710Z,99.60
2023-03-26T01:32:52.495Z,99.60
2023-03-26T01:35:39.475Z,99.60
2023-03-26T01:38:14.325Z,99.60
2023-03-26T01:40:49.449Z,99.60
2023-03-26T01:43:30.033Z,99.60
2023-03-26T01:46:01.160Z,99.60
2023-03-26T01:48:36.370Z,99.60
2023-03-26T01:51:05.475Z,99.60
2023-03-26T01:53:35.378Z,99.60
2023-03-26T01:56:13.730Z,99.60
2023-03-26T01:58:53.975Z,99.60
2023-03-26T02:01:30.096Z,99.60
2023-03-26T02:04:03.469Z,99.60
2023-03-26T02:06:40.661Z,99.60
2023-03-26T02:09:12.473Z,99.60
2023-03-26T02:11:42.496Z,99.60
2023-03-26T02:14:11.070Z,99.60
2023-03-26T02:16:39.389Z,99.60
2023-03-26T02:19:15.732Z,99.60
2023-03-26T02:21:45.871Z,99.60
2023-03-26T02:24:14.138Z,99.60
2023-03-26T02:26:43.610Z,99.60
2023-03-26T02:29:13.286Z,99.60
2023-03-26T02:31:44.413Z,99.60
2023-03-26T02:34:12.630Z,99.60
2023-03-26T02:36:47.086Z,99.60
2023-03-26T02:39:15.310Z,99.60
2023-03-26T02:41:51.676Z,99.60
2023-03-26T02:44:19.745Z,99.60
2023-03-26T02:46:59.480Z,99.60
2023-03-26T02:49:46.220Z,99.60
2023-03-26T02:52:20.701Z,99.60
2023-03-26T02:54:50.652Z,99.60
2023-03-26T02:57:22.625Z,99.60
2023-03-26T02:59:59.298Z,99.60
2023-03-26T03:02:39.815Z,99.60
2023-03-26T03:05:28.717Z,99.60
2023-03-26T03:08:09.693Z,99.60
2023-03-26T03:10:42.423Z,99.60
2023-03-26T03:13:18.615Z,99.60
2023-03-26T03:15:47.103Z,99.60
2023-03-26T03:18:15.257Z,99.60
2023-03-26T03:20:43.636Z,99.60
2023-03-26T03:23:11.924Z,99.60
2023-03-26T03:25:41.053Z,99.60
2023-03-26T03:28:09.215Z,99.60
2023-03-26T03:30:39.018Z,99.60
2023-03-26T03:33:15.905Z,99.60
2023-03-26T03:35:45.859Z,99.60
2023-03-26T03:38:14.134Z,99.60
2023-03-26T03:40:48.614Z,99.60
2023-03-26T03:43:17.654Z,99.60
2023-03-26T03:46:19.318Z,99.60
2023-03-26T03:48:49.915Z,99.60
2023-03-26T03:51:26.533Z,99.60
2023-03-26T03:53:57.868Z,99.60
2023-03-26T03:56:45.704Z,99.60
2023-03-26T03:59:32.167Z,99.60
2023-03-26T04:02:02.660Z,99.60
2023-03-26T04:04:46.372Z,99.60
2023-03-26T04:07:17.158Z,98.90
2023-03-26T04:10:04.132Z,99.60
2023-03-26T04:12:52.429Z,99.60
2023-03-26T04:15:25.368Z,99.60
2023-03-26T04:17:54.745Z,99.60
2023-03-26T04:20:23.246Z,98.50
2023-03-26T04:22:52.912Z,98.50
2023-03-26T04:25:22.494Z,99.40
2023-03-26T04:27:58.495Z,99.50
2023-03-26T04:30:54.730Z,99.40
2023-03-26T04:33:40.871Z,99.00
2023-03-26T04:36:11.550Z,99.20
2023-03-26T04:38:42.848Z,98.40
2023-03-26T04:41:13.586Z,97.80
2023-03-26T04:43:51.409Z,98.20
2023-03-26T04:46:35.099Z,97.60
2023-03-26T04:49:30.754Z,97.80
2023-03-26T04:51:59.205Z,95.90
2023-03-26T04:54:59.480Z,97.20
2023-03-26T04:57:33.786Z,98.20
2023-03-26T05:00:16.606Z,98.40
2023-03-26T05:02:50.132Z,98.20
2023-03-26T05:05:20.857Z,98.30
2023-03-26T05:07:49.759Z,98.30
2023-03-26T05:10:21.312Z,97.70
2023-03-26T05:12:53.580Z,96.20
2023-03-26T05:15:26.259Z,97.60
2023-03-26T05:18:08.781Z,98.00
2023-03-26T05:20:44.419Z,98.30
2023-03-26T05:23:12.900Z,98.70
2023-03-26T05:25:47.199Z,98.60
2023-03-26T05:28:24.711Z,98.10
2023-03-26T05:31:08.526Z,98.20
2023-03-26T05:33:40.020Z,98.00
2023-03-26T05:36:16.294Z,98.20
2023-03-26T05:38:49.611Z,98.40
2023-03-26T05:41:40.836Z,98.60
2023-03-26T05:44:08.772Z,98.30
2023-03-26T05:46:37.000Z,98.60
2023-03-26T05:49:05.250Z,98.50
2023-03-26T05:51:37.395Z,98.10
2023-03-26T05:54:40.739Z,98.40
2023-03-26T05:57:41.935Z,98.40
2023-03-26T06:00:38.376Z,98.30
2023-03-26T06:03:12.363Z,98.40
2023-03-26T06:06:03.824Z,98.30
2023-03-26T06:09:01.578Z,98.10
2023-03-26T06:11:31.311Z,98.20
2023-03-26T06:13:59.467Z,98.10
2023-03-26T06:16:28.389Z,98.00
2023-03-26T06:19:19.837Z,98.00
2023-03-26T06:22:00.650Z,97.90
2023-03-26T06:24:37.874Z,98.10
2023-03-26T06:27:06.329Z,98.20
2023-03-26T06:29:34.323Z,97.90
2023-03-26T06:32:19.168Z,98.00
2023-03-26T06:35:07.276Z,97.90
2023-03-26T06:37:35.449Z,97.50
2023-03-26T06:40:06.098Z,97.90
2023-03-26T06:43:07.122Z,97.30
2023-03-26T06:45:57.024Z,97.40
2023-03-26T06:48:40.475Z,97.40
2023-03-26T06:51:41.179Z,97.40
2023-03-26T06:54:09.263Z,97.50
2023-03-26T06:56:47.570Z,97.60
2023-03-26T06:59:31.024Z,97.80
2023-03-26T07:02:17.495Z,97.70
2023-03-26T07:05:04.242Z,97.70
2023-03-26T07:07:50.747Z,97.00
2023-03-26T07:10:37.123Z,97.20
2023-03-26T07:13:26.476Z,97.50
2023-03-26T07:16:20.573Z,96.60
2023-03-26T07:19:07.444Z,97.20
2023-03-26T07:21:38.787Z,97.00
2023-03-26T07:24:22.520Z,97.00
2023-03-26T07:27:18.445Z,97.00
2023-03-26T07:29:53.342Z,96.80
2023-03-26T07:32:47.198Z,96.50
2023-03-26T07:35:35.801Z,96.70
2023-03-26T07:38:34.150Z,96.50
2023-03-26T07:41:36.453Z,96.30
2023-03-26T07:44:38.779Z,96.20
2023-03-26T07:47:30.050Z,96.00
2023-03-26T07:50:27.644Z,95.70
2023-03-26T07:53:03.990Z,95.80
2023-03-26T07:55:48.049Z,95.80
2023-03-26T07:58:55.786Z,95.60
2023-03-26T08:02:05.332Z,95.70
2023-03-26T08:04:58.409Z,95.30
2023-03-26T08:08:06.954Z,95.10
2023-03-26T08:10:52.801Z,95.00
2023-03-26T08:13:28.108Z,94.70
2023-03-26T08:16:05.689Z,95.00
2023-03-26T08:18:44.822Z,94.50
2023-03-26T08:21:18.742Z,95.40
2023-03-26T08:23:59.021Z,95.20
2023-03-26T08:26:33.139Z,95.20
2023-03-26T08:29:12.274Z,95.30
2023-03-26T08:31:42.308Z,95.50
2023-03-26T08:34:12.474Z,95.50
2023-03-26T08:36:42.234Z,95.10
2023-03-26T08:39:10.330Z,95.20
2023-03-26T08:42:20.322Z,95.20
2023-03-26T08:45:23.868Z,95.40
2023-03-26T08:48:23.416Z,95.10
2023-03-26T08:51:25.103Z,95.10
2023-03-26T08:54:34.738Z,95.00
2023-03-26T08:57:39.088Z,95.00
2023-03-26T09:00:33.917Z,94.90
2023-03-26T09:03:59.469Z,94.90
2023-03-26T09:07:06.852Z,94.50
2023-03-26T09:10:02.099Z,94.20
2023-03-26T09:13:07.450Z,94.40
2023-03-26T09:16:06.435Z,94.10
2023-03-26T09:19:03.893Z,93.70
2023-03-26T09:22:00.399Z,93.70
2023-03-26T09:24:43.130Z,93.70
2023-03-26T09:27:33.918Z,94.10
2023-03-26T09:30:41.670Z,93.00
2023-03-26T09:33:48.675Z,93.20
2023-03-26T09:36:37.349Z,91.70
2023-03-26T09:39:11.191Z,92.70
2023-03-26T09:41:44.111Z,91.50
2023-03-26T09:44:49.585Z,91.50
2023-03-26T09:47:52.134Z,91.50
2023-03-26T09:50:38.157Z,90.90
2023-03-26T09:53:23.775Z,91.30
2023-03-26T09:56:09.981Z,90.20
2023-03-26T09:58:49.669Z,89.60
2023-03-26T10:01:26.185Z,90.00
2023-03-26T10:04:02.570Z,90.10
2023-03-26T10:06:39.608Z,89.90
2023-03-26T10:09:23.348Z,90.30
2023-03-26T10:12:06.901Z,90.50
2023-03-26T10:14:40.839Z,90.50
2023-03-26T10:17:32.016Z,90.60
2023-03-26T10:20:13.039Z,90.70
2023-03-26T10:22:56.774Z,90.00
2023-03-26T10:25:44.141Z,90.20
2023-03-26T10:28:26.280Z,90.30
2023-03-26T10:31:19.349Z,90.30
2023-03-26T10:34:01.377Z,91.00
2023-03-26T10:36:34.031Z,90.40
2023-03-26T10:39:38.360Z,90.20
2023-03-26T10:42:33.967Z,89.60
2023-03-26T10:45:18.922Z,89.00
2023-03-26T10:48:20.435Z,88.70
2023-03-26T10:51:08.011Z,88.50
2023-03-26T10:53:39.935Z,88.60
2023-03-26T10:56:16.167Z,88.50
2023-03-26T10:58:48.804Z,88.20
2023-03-26T11:01:28.972Z,88.30
2023-03-26T11:03:59.910Z,88.00
2023-03-26T11:06:41.270Z,87.70
2023-03-26T11:09:24.993Z,87.70
2023-03-26T11:12:03.111Z,87.80
2023-03-26T11:14:57.750Z,88.10
2023-03-26T11:17:41.586Z,87.90
2023-03-26T11:20:17.668Z,87.00
2023-03-26T11:23:00.344Z,87.90
2023-03-26T11:25:40.002Z,87.40
2023-03-26T11:28:23.709Z,86.70
2023-03-26T11:30:56.718Z,86.70
2023-03-26T11:33:32.577Z,86.30
2023-03-26T11:36:06.425Z,86.60
2023-03-26T11:38:39.079Z,86.20
2023-03-26T11:41:14.163Z,86.20
2023-03-26T11:43:58.661Z,85.70
2023-03-26T11:46:33.630Z,86.10
2023-03-26T11:49:09.118Z,86.20
2023-03-26T11:51:38.460Z,86.60
2023-03-26T11:54:11.205Z,86.00
2023-03-26T11:57:05.668Z,85.50
2023-03-26T11:59:49.054Z,85.60
2023-03-26T12:02:29.879Z,85.70
2023-03-26T12:05:14.750Z,85.60
2023-03-26T12:07:51.193Z,85.80
2023-03-26T12:10:26.891Z,85.90
2023-03-26T12:12:57.694Z,85.80
2023-03-26T12:15:26.627Z,85.90
2023-03-26T12:17:56.999Z,86.10
2023-03-26T12:20:38.644Z,86.30
2023-03-26T12:23:08.202Z,86.40
2023-03-26T12:25:40.134Z,85.70
2023-03-26T12:28:19.475Z,85.80
2023-03-26T12:30:58.636Z,86.10
2023-03-26T12:33:29.434Z,86.00
2023-03-26T12:36:00.583Z,86.10
2023-03-26T12:38:33.129Z,85.90
2023-03-26T12:44:42.354Z,85.80
2023-03-26T12:44:50.337Z,85.20
2023-03-26T12:48:00.198Z,84.80
2023-03-26T12:50:09.634Z,85.60
2023-03-26T12:52:58.253Z,86.10
2023-03-26T12:55:44.018Z,86.10
2023-03-26T12:58:34.772Z,85.90
2023-03-26T13:01:11.209Z,85.80
2023-03-26T13:03:56.126Z,86.20
2023-03-26T13:06:31.895Z,86.40
2023-03-26T13:09:33.326Z,86.20
2023-03-26T13:12:14.360Z,86.20
2023-03-26T13:14:59.213Z,86.30
2023-03-26T13:17:35.255Z,86.10
2023-03-26T13:20:12.147Z,85.90
2023-03-26T13:22:49.913Z,86.30
2023-03-26T13:25:31.213Z,86.10
2023-03-26T13:28:13.022Z,85.90
2023-03-26T13:30:49.724Z,85.90
2023-03-26T13:33:33.118Z,86.00
2023-03-26T13:36:21.839Z,85.80
2023-03-26T13:39:04.990Z,86.20
2023-03-26T13:41:45.250Z,85.90
2023-03-26T13:44:23.677Z,86.40
2023-03-26T13:46:54.333Z,85.40
2023-03-26T13:49:37.213Z,85.80
2023-03-26T13:52:11.485Z,85.90
2023-03-26T13:54:47.660Z,85.30
2023-03-26T13:57:24.135Z,85.50
2023-03-26T13:59:58.766Z,85.00
2023-03-26T14:02:38.683Z,85.80
2023-03-26T14:05:13.296Z,85.70
2023-03-26T14:07:46.008Z,85.40
2023-03-26T14:10:18.736Z,84.50
2023-03-26T14:12:53.566Z,85.60
2023-03-26T14:15:27.643Z,86.10
2023-03-26T14:18:06.006Z,85.70
2023-03-26T14:21:04.844Z,85.20
2023-03-26T14:24:01.897Z,85.20
2023-03-26T14:26:47.980Z,84.10
2023-03-26T14:29:31.036Z,84.80
2023-03-26T14:32:12.745Z,85.20
2023-03-26T14:34:52.377Z,85.10
2023-03-26T14:37:51.642Z,85.10
2023-03-26T14:40:31.196Z,84.60
2023-03-26T14:43:23.195Z,84.70
2023-03-26T14:46:07.580Z,84.50
2023-03-26T14:49:06.462Z,84.00
2023-03-26T14:51:56.125Z,83.90
2023-03-26T14:54:27.081Z,84.40
2023-03-26T14:57:24.002Z,84.50
2023-03-26T15:00:28.831Z,84.80
2023-03-26T15:03:34.476Z,84.80
2023-03-26T15:06:53.286Z,84.60
2023-03-26T15:09:55.265Z,84.90
2023-03-26T15:12:37.975Z,85.20
2023-03-26T15:15:45.793Z,84.90
2023-03-26T15:19:17.682Z,85.00
2023-03-26T15:22:26.614Z,85.40
2023-03-26T15:25:41.001Z,85.80
2023-03-26T15:28:38.510Z,85.50
2023-03-26T15:31:21.742Z,84.90
2023-03-26T15:34:20.216Z,85.60
2023-03-26T15:37:22.374Z,86.10
2023-03-26T15:40:12.752Z,86.30
2023-03-26T15:42:55.358Z,87.10
2023-03-26T15:45:33.141Z,87.30
2023-03-26T15:48:55.266Z,87.70
2023-03-26T15:51:47.099Z,88.20
2023-03-26T15:54:25.786Z,87.40
2023-03-26T15:57:10.310Z,88.00
2023-03-26T15:59:50.234Z,88.40
2023-03-26T16:02:28.035Z,88.50
2023-03-26T16:04:57.756Z,88.60
2023-03-26T16:07:47.895Z,88.90
2023-03-26T16:10:40.769Z,88.70
2023-03-26T16:13:41.677Z,89.20
2023-03-26T16:16:23.070Z,88.90
2023-03-26T16:18:58.297Z,90.30
2023-03-26T16:21:54.404Z,90.70
2023-03-26T16:24:27.124Z,91.20
2023-03-26T16:27:21.691Z,90.40
2023-03-26T16:30:30.237Z,89.60
2023-03-26T16:33:05.330Z,90.00
2023-03-26T16:36:01.894Z,90.00
2023-03-26T16:38:50.090Z,89.40
2023-03-26T16:41:19.761Z,89.50
2023-03-26T16:44:02.219Z,89.40
2023-03-26T16:46:42.991Z,89.20
2023-03-26T16:49:24.161Z,90.40
2023-03-26T16:52:07.100Z,90.50
2023-03-26T16:54:45.982Z,91.60
2023-03-26T16:57:26.047Z,91.60
2023-03-26T17:00:27.425Z,91.50
2023-03-26T17:03:08.032Z,91.60
2023-03-26T17:05:38.983Z,91.90
2023-03-26T17:08:16.922Z,92.10
2023-03-26T17:10:56.859Z,92.40
2023-03-26T17:13:33.579Z,92.20
2023-03-26T17:16:13.285Z,92.90
2023-03-26T17:18:53.114Z,93.10
2023-03-26T17:21:28.854Z,93.00
2023-03-26T17:24:24.664Z,92.90
2023-03-26T17:27:23.692Z,93.50
2023-03-26T17:30:05.062Z,92.80
2023-03-26T17:32:59.983Z,93.00
2023-03-26T17:35:44.071Z,92.10
2023-03-26T17:39:00.959Z,92.30
2023-03-26T17:41:52.460Z,92.40
2023-03-26T17:44:45.627Z,91.70
2023-03-26T17:47:38.227Z,91.60
2023-03-26T17:50:14.501Z,91.80
2023-03-26T17:52:52.385Z,91.40
2023-03-26T17:55:23.010Z,92.20
2023-03-26T17:57:54.318Z,91.90
2023-03-26T18:00:24.435Z,91.80
2023-03-26T18:02:57.295Z,91.50
2023-03-26T18:05:30.042Z,91.50
2023-03-26T18:08:33.852Z,91.80
2023-03-26T18:11:20.810Z,89.90
2023-03-26T18:14:17.720Z,91.00
2023-03-26T18:16:49.285Z,90.50
2023-03-26T18:19:19.512Z,89.70
2023-03-26T18:21:50.702Z,88.70
2023-03-26T18:24:22.423Z,89.10
2023-03-26T18:26:55.804Z,88.50
2023-03-26T18:29:26.105Z,88.40
2023-03-26T18:31:57.606Z,88.30
2023-03-26T18:34:27.169Z,88.10
2023-03-26T18:37:16.360Z,87.40
2023-03-26T18:39:57.214Z,87.80
2023-03-26T18:42:27.783Z,88.30
2023-03-26T18:44:59.873Z,87.30
2023-03-26T18:47:30.975Z,86.10
2023-03-26T18:50:00.104Z,86.30
2023-03-26T18:52:30.579Z,86.40
2023-03-26T18:55:00.048Z,86.60
2023-03-26T18:57:30.262Z,86.60
2023-03-26T19:00:10.349Z,86.60
2023-03-26T19:02:39.978Z,86.60
2023-03-26T19:05:13.710Z,86.70
2023-03-26T19:07:45.873Z,86.50
2023-03-26T19:10:18.547Z,85.60
2023-03-26T19:12:56.545Z,85.40
2023-03-26T19:15:25.549Z,84.60
2023-03-26T19:17:59.581Z,85.20
2023-03-26T19:20:30.544Z,84.20
2023-03-26T19:22:58.891Z,84.30
2023-03-26T19:25:29.887Z,83.90
2023-03-26T19:27:59.679Z,83.60
2023-03-26T19:30:31.719Z,84.30
2023-03-26T19:33:12.821Z,84.00
2023-03-26T19:35:43.741Z,83.80
2023-03-26T19:38:23.199Z,83.20
2023-03-26T19:40:53.126Z,83.60
2023-03-26T19:43:23.217Z,83.90
2023-03-26T19:46:00.250Z,82.70
2023-03-26T19:48:45.952Z,82.50
2023-03-26T19:51:21.007Z,82.10
2023-03-26T19:53:52.986Z,82.30
2023-03-26T19:56:22.082Z,81.60
2023-03-26T19:58:51.758Z,81.00
2023-03-26T20:01:22.791Z,80.70
2023-03-26T20:03:53.611Z,80.80
2023-03-26T20:06:30.857Z,81.10
2023-03-26T20:09:06.462Z,81.40
2023-03-26T20:11:37.910Z,81.10
2023-03-26T20:14:13.949Z,81.50
2023-03-26T20:16:43.798Z,81.40
2023-03-26T20:19:14.173Z,80.80
2023-03-26T20:21:42.587Z,80.70
2023-03-26T20:24:14.634Z,80.40
2023-03-26T20:26:42.900Z,79.70
2023-03-26T20:29:12.904Z,80.10
2023-03-26T20:31:42.070Z,80.10
2023-03-26T20:34:17.243Z,79.70
2023-03-26T20:36:46.468Z,79.90
2023-03-26T20:39:14.721Z,79.60
2023-03-26T20:41:46.050Z,78.80
2023-03-26T20:44:17.661Z,78.90
2023-03-26T20:46:46.795Z,77.80
2023-03-26T20:49:15.805Z,77.90
2023-03-26T20:51:45.038Z,77.40
2023-03-26T20:54:21.245Z,77.50
2023-03-26T20:56:49.612Z,76.80
2023-03-26T20:59:21.863Z,76.20
2023-03-26T21:01:51.156Z,76.50
2023-03-26T21:04:19.657Z,76.80
2023-03-26T21:06:48.116Z,75.70
2023-03-26T21:09:18.562Z,75.80
2023-03-26T21:11:53.633Z,75.20
2023-03-26T21:14:26.364Z,75.60
2023-03-26T21:16:54.842Z,76.00
2023-03-26T21:19:23.439Z,74.70
2023-03-26T21:22:02.163Z,75.00
2023-03-26T21:24:41.836Z,74.90
2023-03-26T21:27:19.406Z,73.50
2023-03-26T21:29:49.372Z,73.60
2023-03-26T21:32:17.886Z,72.70
2023-03-26T21:34:55.577Z,73.70
2023-03-26T21:37:27.126Z,73.20
2023-03-26T21:39:55.852Z,73.80
2023-03-26T21:42:26.786Z,73.70
2023-03-26T21:44:57.125Z,73.20
2023-03-26T21:47:25.683Z,73.30
2023-03-26T21:49:54.815Z,73.50
2023-03-26T21:52:23.878Z,73.30
2023-03-26T21:54:52.807Z,73.60
2023-03-26T21:57:39.755Z,73.50
2023-03-26T22:00:15.989Z,73.70
2023-03-26T22:02:55.163Z,73.90
2023-03-26T22:05:31.112Z,74.00
2023-03-26T22:08:02.939Z,74.00
2023-03-26T22:10:31.982Z,74.10
2023-03-26T22:13:00.512Z,74.30
2023-03-26T22:15:31.072Z,74.90
2023-03-26T22:18:02.221Z,74.90
2023-03-26T22:20:30.403Z,74.90
2023-03-26T22:22:58.997Z,74.90
2023-03-26T22:25:27.579Z,75.00
2023-03-26T22:27:57.239Z,75.20
2023-03-26T22:30:25.694Z,75.90
2023-03-26T22:32:55.685Z,76.20
2023-03-26T22:35:24.223Z,76.50
2023-03-26T22:37:52.592Z,76.90
2023-03-26T22:40:29.427Z,77.40
2023-03-26T22:42:57.540Z,76.90
2023-03-26T22:45:26.056Z,76.80
2023-03-26T22:48:03.883Z,76.90
2023-03-26T22:50:32.610Z,76.70
2023-03-26T22:53:01.033Z,76.80
2023-03-26T22:55:30.014Z,77.00
2023-03-26T22:57:58.293Z,77.00
2023-03-26T23:00:26.529Z,77.10
2023-03-26T23:03:00.255Z,77.10
2023-03-26T23:05:28.729Z,77.20
2023-03-26T23:07:57.110Z,77.40
2023-03-26T23:10:25.162Z,77.60
2023-03-26T23:12:53.424Z,77.40
2023-03-26T23:15:22.156Z,76.90
2023-03-26T23:17:54.792Z,76.80
2023-03-26T23:20:24.479Z,76.70
2023-03-26T23:22:52.565Z,76.70
2023-03-26T23:25:21.048Z,76.80
2023-03-26T23:27:50.462Z,76.80
2023-03-26T23:30:19.165Z,76.60
2023-03-26T23:32:47.345Z,76.80
2023-03-26T23:35:15.651Z,77.10
2023-03-26T23:37:45.170Z,77.30
2023-03-26T23:40:14.162Z,77.10
2023-03-26T23:42:42.471Z,76.60
2023-03-26T23:45:12.190Z,77.20
2023-03-26T23:47:42.435Z,77.70
2023-03-26T23:50:12.772Z,77.20
2023-03-26T23:52:40.792Z,77.80
2023-03-26T23:55:10.685Z,78.10
2023-03-26T23:57:38.602Z,78.30
